East Moriches, New York
Current Conditions -  °F | °C
As of 10:56 AM on Wednesday 28 Jan 2015 (Local Time) from KHWV Reporting Station
Clear Clear  
Wind Chill:   Ceiling: Unl
Heat Index: 22°   Visibility: 10mi
Dew Point:   Wind: 15mph
Humidity: 53%   Direction: 320°NW
Pressure: 30.03"   Gusts: 22mph
Location:  40.81°N, 72.76°W
Report Text: KHWV 281556Z AUTO 32013G19KT 10SM CLR M06/M14 A3003 RMK AO2 SLP171 T10561139 TSNO $
Loading
Personal Weather Stations






























Interactive Weather Map New forecast layout! Learn more

10-Day Weather Forecast

Advertisements
Track Severe Weather on mobile